createdAt,value
2022-11-17T00:00:11.646Z,14.78
2022-11-17T00:01:11.372Z,14.77
2022-11-17T00:02:11.647Z,14.81
2022-11-17T00:03:10.814Z,14.83
2022-11-17T00:04:11.256Z,14.86
2022-11-17T00:05:11.595Z,14.84
2022-11-17T00:06:11.897Z,14.85
2022-11-17T00:07:11.271Z,14.85
2022-11-17T00:08:11.583Z,14.84
2022-11-17T00:09:11.593Z,14.85
2022-11-17T00:10:11.607Z,14.82
2022-11-17T00:11:11.505Z,14.82
2022-11-17T00:12:12.060Z,14.87
2022-11-17T00:13:11.684Z,14.89
2022-11-17T00:14:10.809Z,14.85
2022-11-17T00:15:11.015Z,14.83
2022-11-17T00:16:11.290Z,14.84
2022-11-17T00:17:11.409Z,14.82
2022-11-17T00:18:11.055Z,14.83
2022-11-17T00:19:11.697Z,14.84
2022-11-17T00:20:10.893Z,14.85
2022-11-17T00:21:11.088Z,14.85
2022-11-17T00:22:11.330Z,14.87
2022-11-17T00:23:11.485Z,14.87
2022-11-17T00:24:11.592Z,14.88
2022-11-17T00:25:11.409Z,14.89
2022-11-17T00:26:11.483Z,14.88
2022-11-17T00:27:11.261Z,14.85
2022-11-17T00:28:11.766Z,14.88
2022-11-17T00:29:10.670Z,14.88
2022-11-17T00:30:10.771Z,14.90
2022-11-17T00:31:11.659Z,14.85
2022-11-17T00:32:11.807Z,14.85
2022-11-17T00:33:11.321Z,14.89
2022-11-17T00:34:11.005Z,14.90
2022-11-17T00:35:11.173Z,14.92
2022-11-17T00:36:11.093Z,14.93
2022-11-17T00:37:10.957Z,14.93
2022-11-17T00:38:10.895Z,14.93
2022-11-17T00:39:10.720Z,14.96
2022-11-17T00:40:10.776Z,14.99
2022-11-17T00:41:11.031Z,15.01
2022-11-17T00:42:11.318Z,15.03
2022-11-17T00:43:11.366Z,15.03
2022-11-17T00:44:11.016Z,15.06
2022-11-17T00:45:11.098Z,15.02
2022-11-17T00:46:10.983Z,15.04
2022-11-17T00:47:11.112Z,15.03
2022-11-17T00:48:11.570Z,15.03
2022-11-17T00:49:11.096Z,15.02
2022-11-17T00:50:11.019Z,15
2022-11-17T00:51:10.864Z,14.97
2022-11-17T00:52:10.773Z,14.98
2022-11-17T00:53:10.673Z,14.97
2022-11-17T00:54:10.641Z,14.96
2022-11-17T00:55:11.641Z,14.94
2022-11-17T00:56:11.515Z,14.97
2022-11-17T00:57:11.781Z,14.95
2022-11-17T00:58:10.916Z,14.96
2022-11-17T00:59:10.791Z,14.93
2022-11-17T01:00:11.480Z,14.95
2022-11-17T01:01:12.048Z,14.92
2022-11-17T01:02:10.956Z,14.92
2022-11-17T01:03:10.947Z,14.91
2022-11-17T01:04:11.547Z,14.90
2022-11-17T01:05:11.714Z,14.89
2022-11-17T01:06:10.731Z,14.93
2022-11-17T01:07:10.528Z,14.91
2022-11-17T01:08:10.807Z,14.89
2022-11-17T01:09:10.891Z,14.85
2022-11-17T01:10:10.903Z,14.85
2022-11-17T01:11:11.076Z,14.81
2022-11-17T01:12:15.740Z,14.81
2022-11-17T01:13:11.935Z,14.81
2022-11-17T01:14:10.976Z,14.83
2022-11-17T01:15:10.550Z,14.82
2022-11-17T01:16:16.771Z,14.83
2022-11-17T01:17:11.090Z,14.83
2022-11-17T01:18:10.903Z,14.82
2022-11-17T01:19:10.751Z,14.87
2022-11-17T01:20:11.001Z,14.88
2022-11-17T01:21:11.025Z,14.89
2022-11-17T01:22:11.000Z,14.89
2022-11-17T01:23:10.876Z,14.89
2022-11-17T01:24:11.069Z,14.89
2022-11-17T01:25:10.919Z,14.89
2022-11-17T01:26:10.908Z,14.84
2022-11-17T01:27:10.650Z,14.80
2022-11-17T01:28:10.693Z,14.78
2022-11-17T01:29:11.605Z,14.76
2022-11-17T01:30:11.821Z,14.78
2022-11-17T01:31:10.830Z,14.81
2022-11-17T01:32:10.874Z,14.78
2022-11-17T01:33:10.809Z,14.77
2022-11-17T01:34:24.586Z,14.77
2022-11-17T01:35:10.925Z,14.76
2022-11-17T01:36:10.695Z,14.75
2022-11-17T01:37:11.339Z,14.77
2022-11-17T01:38:10.933Z,14.75
2022-11-17T01:39:10.340Z,14.77
2022-11-17T01:40:11.324Z,14.77
2022-11-17T01:41:10.818Z,13
2022-11-17T01:42:10.997Z,14.77
2022-11-17T01:43:10.824Z,14.77
2022-11-17T01:44:11.703Z,14.78
2022-11-17T01:45:11.373Z,14.77
2022-11-17T01:46:11.311Z,14.76
2022-11-17T01:47:10.568Z,14.76
2022-11-17T01:48:10.519Z,14.80
2022-11-17T01:49:11.481Z,14.78
2022-11-17T01:50:11.531Z,14.78
2022-11-17T01:51:11.300Z,14.78
2022-11-17T01:52:11.096Z,14.78
2022-11-17T01:53:11.284Z,14.76
2022-11-17T01:54:11.153Z,14.76
2022-11-17T01:55:10.982Z,14.76
2022-11-17T01:56:10.621Z,14.77
2022-11-17T01:57:11.466Z,14.76
2022-11-17T01:58:11.047Z,14.77
2022-11-17T01:59:11.026Z,14.76
2022-11-17T02:00:11.315Z,14.77
2022-11-17T02:01:11.345Z,14.78
2022-11-17T02:02:11.588Z,14.77
2022-11-17T02:03:11.656Z,14.77
2022-11-17T02:04:11.440Z,14.77
2022-11-17T02:05:11.488Z,14.75
2022-11-17T02:06:11.358Z,14.77
2022-11-17T02:07:11.083Z,14.76
2022-11-17T02:08:11.147Z,14.79
2022-11-17T02:09:10.776Z,14.78
2022-11-17T02:10:10.658Z,14.78
2022-11-17T02:11:10.516Z,14.77
2022-11-17T02:12:11.253Z,14.75
2022-11-17T02:13:11.060Z,14.76
2022-11-17T02:14:10.932Z,14.77
2022-11-17T02:15:10.986Z,14.78
2022-11-17T02:16:10.689Z,14.78
2022-11-17T02:17:14.285Z,14.77
2022-11-17T02:18:11.119Z,14.75
2022-11-17T02:19:10.888Z,14.77
2022-11-17T02:20:11.122Z,14.76
2022-11-17T02:21:11.040Z,14.77
2022-11-17T02:22:11.072Z,14.77
2022-11-17T02:23:11.025Z,14.75
2022-11-17T02:24:10.935Z,14.78
2022-11-17T02:25:10.763Z,14.78
2022-11-17T02:26:10.662Z,14.81
2022-11-17T02:27:11.411Z,14.80
2022-11-17T02:28:11.038Z,14.79
2022-11-17T02:29:11.150Z,14.81
2022-11-17T02:30:11.681Z,14.82
2022-11-17T02:31:10.981Z,14.82
2022-11-17T02:32:10.690Z,14.81
2022-11-17T02:33:11.402Z,14.79
2022-11-17T02:34:11.103Z,14.80
2022-11-17T02:35:11.131Z,14.82
2022-11-17T02:36:11.325Z,14.82
2022-11-17T02:37:10.883Z,14.82
2022-11-17T02:38:10.834Z,14.81
2022-11-17T02:39:10.893Z,14.82
2022-11-17T02:40:11.147Z,14.81
2022-11-17T02:41:11.105Z,14.82
2022-11-17T02:42:11.183Z,14.83
2022-11-17T02:43:11.081Z,14.81
2022-11-17T02:44:11.326Z,14.80
2022-11-17T02:45:11.558Z,14.82
2022-11-17T02:46:11.599Z,14.78
2022-11-17T02:47:11.532Z,14.77
2022-11-17T02:48:11.019Z,14.76
2022-11-17T02:49:10.667Z,14.76
2022-11-17T02:50:10.833Z,14.77
2022-11-17T02:51:10.892Z,14.77
2022-11-17T02:52:11.059Z,14.77
2022-11-17T02:53:11.240Z,14.81
2022-11-17T02:54:11.137Z,14.77
2022-11-17T02:55:11.000Z,14.79
2022-11-17T02:56:11.422Z,14.81
2022-11-17T02:57:11.623Z,14.82
2022-11-17T02:58:11.214Z,14.86
2022-11-17T02:59:11.196Z,14.87
2022-11-17T03:00:11.606Z,14.87
2022-11-17T03:01:10.930Z,14.86
2022-11-17T03:02:10.975Z,14.87
2022-11-17T03:03:10.802Z,14.87
2022-11-17T03:04:10.714Z,14.88
2022-11-17T03:05:10.587Z,14.85
2022-11-17T03:06:10.659Z,14.86
2022-11-17T03:07:10.821Z,14.86
2022-11-17T03:08:10.535Z,14.87
2022-11-17T03:09:11.369Z,14.85
2022-11-17T03:10:11.052Z,14.87
2022-11-17T03:11:10.714Z,14.84
2022-11-17T03:12:10.622Z,14.86
2022-11-17T03:13:11.180Z,14.85
2022-11-17T03:14:11.129Z,14.86
2022-11-17T03:15:10.668Z,14.88
2022-11-17T03:16:11.372Z,14.87
2022-11-17T03:17:11.168Z,14.83
2022-11-17T03:18:11.260Z,14.84
2022-11-17T03:19:11.036Z,14.83
2022-11-17T03:20:11.019Z,14.83
2022-11-17T03:21:10.918Z,14.83
2022-11-17T03:22:10.805Z,14.82
2022-11-17T03:23:11.112Z,14.80
2022-11-17T03:24:11.071Z,14.80
2022-11-17T03:25:10.845Z,14.78
2022-11-17T03:26:10.752Z,14.76
2022-11-17T03:27:10.636Z,14.77
2022-11-17T03:28:10.658Z,14.78
2022-11-17T03:29:11.566Z,14.80
2022-11-17T03:30:11.557Z,14.77
2022-11-17T03:31:11.701Z,14.77
2022-11-17T03:32:11.275Z,14.78
2022-11-17T03:33:11.121Z,14.78
2022-11-17T03:34:10.852Z,14.76
2022-11-17T03:35:10.568Z,14.80
2022-11-17T03:36:10.451Z,14.80
2022-11-17T03:37:11.313Z,14.80
2022-11-17T03:38:11.034Z,14.82
2022-11-17T03:39:10.947Z,14.78
2022-11-17T03:40:10.990Z,14.78
2022-11-17T03:41:11.103Z,14.77
2022-11-17T03:42:10.980Z,14.77
2022-11-17T03:43:10.719Z,14.77
2022-11-17T03:44:11.311Z,14.78
2022-11-17T03:45:11.177Z,14.77
2022-11-17T03:46:10.688Z,14.77
2022-11-17T03:47:10.758Z,14.76
2022-11-17T03:48:11.292Z,14.71
2022-11-17T03:49:10.744Z,14.67
2022-11-17T03:50:11.743Z,14.67
2022-11-17T03:51:11.334Z,14.68
2022-11-17T03:52:11.053Z,14.68
2022-11-17T03:53:10.419Z,14.64
2022-11-17T03:54:11.079Z,14.65
2022-11-17T03:55:10.728Z,14.63
2022-11-17T03:56:11.354Z,14.62
2022-11-17T03:57:11.061Z,14.61
2022-11-17T03:58:10.929Z,14.63
2022-11-17T03:59:10.878Z,14.67
2022-11-17T04:00:11.028Z,14.69
2022-11-17T04:01:11.083Z,14.72
2022-11-17T04:02:11.084Z,14.72
2022-11-17T04:03:10.914Z,14.74
2022-11-17T04:04:10.919Z,14.75
2022-11-17T04:05:11.078Z,14.76
2022-11-17T04:06:10.866Z,14.80
2022-11-17T04:07:10.556Z,14.79
2022-11-17T04:08:10.563Z,14.79
2022-11-17T04:09:11.129Z,14.79
2022-11-17T04:10:11.230Z,14.80
2022-11-17T04:11:10.759Z,14.78
2022-11-17T04:12:10.493Z,14.81
2022-11-17T04:13:10.914Z,14.80
2022-11-17T04:14:10.602Z,14.80
2022-11-17T04:15:10.736Z,14.79
2022-11-17T04:16:10.770Z,14.79
2022-11-17T04:17:10.795Z,14.80
2022-11-17T04:18:11.707Z,14.78
2022-11-17T04:19:11.245Z,14.78
2022-11-17T04:20:10.893Z,14.78
2022-11-17T04:21:10.743Z,14.77
2022-11-17T04:22:11.645Z,14.77
2022-11-17T04:23:11.463Z,14.77
2022-11-17T04:24:11.062Z,14.77
2022-11-17T04:25:11.094Z,14.77
2022-11-17T04:26:10.532Z,14.77
2022-11-17T04:27:11.540Z,14.76
2022-11-17T04:28:11.256Z,14.73
2022-11-17T04:29:10.982Z,14.73
2022-11-17T04:30:10.936Z,14.75
2022-11-17T04:31:10.780Z,14.76
2022-11-17T04:32:10.711Z,14.77
2022-11-17T04:33:11.418Z,14.78
2022-11-17T04:34:10.838Z,14.77
2022-11-17T04:35:10.849Z,14.77
2022-11-17T04:36:10.644Z,14.79
2022-11-17T04:37:11.515Z,14.79
2022-11-17T04:38:11.103Z,14.80
2022-11-17T04:39:10.928Z,14.80
2022-11-17T04:40:10.712Z,14.78
2022-11-17T04:41:11.400Z,14.79
2022-11-17T04:42:11.081Z,14.77
2022-11-17T04:43:10.673Z,14.79
2022-11-17T04:44:11.264Z,14.79
2022-11-17T04:45:11.139Z,14.80
2022-11-17T04:46:10.811Z,14.80
2022-11-17T04:47:10.956Z,14.78
2022-11-17T04:48:10.997Z,14.76
2022-11-17T04:49:10.822Z,14.75
2022-11-17T04:50:10.712Z,14.79
2022-11-17T04:51:11.325Z,14.77
2022-11-17T04:52:11.010Z,14.75
2022-11-17T04:53:10.946Z,14.75
2022-11-17T04:54:10.928Z,14.76
2022-11-17T04:55:11.047Z,14.75
2022-11-17T04:56:10.758Z,14.75
2022-11-17T04:57:11.397Z,14.77
2022-11-17T04:58:11.113Z,14.77
2022-11-17T04:59:10.845Z,14.77
2022-11-17T05:00:11.105Z,14.76
2022-11-17T05:01:11.193Z,14.80
2022-11-17T05:02:11.205Z,14.80
2022-11-17T05:03:11.367Z,14.82
2022-11-17T05:04:10.768Z,14.85
2022-11-17T05:05:11.050Z,14.82
2022-11-17T05:06:10.672Z,14.81
2022-11-17T05:07:11.407Z,14.82
2022-11-17T05:08:10.970Z,14.81
2022-11-17T05:09:11.109Z,14.79
2022-11-17T05:10:10.801Z,14.77
2022-11-17T05:11:11.444Z,14.80
2022-11-17T05:12:11.183Z,14.84
2022-11-17T05:13:10.844Z,14.84
2022-11-17T05:14:10.573Z,14.82
2022-11-17T05:15:11.662Z,14.86
2022-11-17T05:16:10.953Z,14.86
2022-11-17T05:17:11.543Z,14.87
2022-11-17T05:18:11.449Z,14.88
2022-11-17T05:19:11.322Z,14.89
2022-11-17T05:20:11.300Z,14.88
2022-11-17T05:21:11.060Z,14.89
2022-11-17T05:22:10.633Z,14.90
2022-11-17T05:23:11.362Z,14.88
2022-11-17T05:24:11.257Z,14.88
2022-11-17T05:25:11.464Z,14.89
2022-11-17T05:26:11.331Z,14.90
2022-11-17T05:27:10.894Z,14.87
2022-11-17T05:28:10.724Z,14.86
2022-11-17T05:29:10.935Z,14.87
2022-11-17T05:30:10.883Z,14.88
2022-11-17T05:31:10.898Z,14.84
2022-11-17T05:32:10.819Z,14.85
2022-11-17T05:33:10.758Z,14.86
2022-11-17T05:34:10.574Z,14.89
2022-11-17T05:35:11.657Z,14.87
2022-11-17T05:36:11.489Z,14.87
2022-11-17T05:37:10.907Z,14.85
2022-11-17T05:38:10.919Z,14.86
2022-11-17T05:39:11.083Z,14.86
2022-11-17T05:40:10.991Z,14.87
2022-11-17T05:41:10.729Z,14.90
2022-11-17T05:42:11.726Z,14.88
2022-11-17T05:43:11.702Z,14.86
2022-11-17T05:44:10.667Z,14.87
2022-11-17T05:45:10.792Z,14.89
2022-11-17T05:46:10.656Z,14.86
2022-11-17T05:47:11.643Z,14.83
2022-11-17T05:48:10.584Z,14.81
2022-11-17T05:49:10.717Z,14.83
2022-11-17T05:50:11.749Z,14.86
2022-11-17T05:51:11.495Z,14.85
2022-11-17T05:52:11.420Z,14.82
2022-11-17T05:53:11.179Z,14.82
2022-11-17T05:54:10.923Z,14.84
2022-11-17T05:55:10.879Z,14.86
2022-11-17T05:56:10.757Z,14.88
2022-11-17T05:57:11.554Z,14.86
2022-11-17T05:58:11.404Z,14.87
2022-11-17T05:59:10.859Z,14.90
2022-11-17T06:00:12.093Z,14.88
2022-11-17T06:01:11.429Z,14.86
2022-11-17T06:02:11.437Z,14.88
2022-11-17T06:03:11.130Z,14.90
2022-11-17T06:04:10.838Z,14.93
2022-11-17T06:05:15.661Z,14.93
2022-11-17T06:06:15.737Z,14.91
2022-11-17T06:07:11.167Z,14.92
2022-11-17T06:08:11.016Z,14.90
2022-11-17T06:09:10.923Z,14.86
2022-11-17T06:10:11.078Z,14.85
2022-11-17T06:11:10.906Z,14.85
2022-11-17T06:12:10.785Z,14.82
2022-11-17T06:13:10.944Z,14.82
2022-11-17T06:14:10.551Z,14.89
2022-11-17T06:15:11.458Z,14.91
2022-11-17T06:16:11.299Z,14.87
2022-11-17T06:17:11.024Z,14.78
2022-11-17T06:18:11.037Z,14.77
2022-11-17T06:19:11.145Z,14.76
2022-11-17T06:20:10.983Z,14.76
2022-11-17T06:21:10.761Z,14.78
2022-11-17T06:22:12.661Z,14.78
2022-11-17T06:23:10.769Z,14.75
2022-11-17T06:24:10.692Z,14.76
2022-11-17T06:25:10.840Z,14.78
2022-11-17T06:26:10.915Z,14.79
2022-11-17T06:27:10.986Z,14.77
2022-11-17T06:28:11.346Z,14.73
2022-11-17T06:29:11.077Z,14.73
2022-11-17T06:30:12.191Z,14.71
2022-11-17T06:31:11.580Z,14.67
2022-11-17T06:32:11.188Z,14.68
2022-11-17T06:33:12.523Z,14.65
2022-11-17T06:34:11.045Z,14.60
2022-11-17T06:35:11.064Z,14.58
2022-11-17T06:36:11.317Z,14.56
2022-11-17T06:37:11.806Z,14.54
2022-11-17T06:38:10.948Z,14.51
2022-11-17T06:39:11.332Z,14.44
2022-11-17T06:40:11.290Z,14.42
2022-11-17T06:41:12.236Z,14.41
2022-11-17T06:42:11.313Z,14.40
2022-11-17T06:43:10.928Z,14.36
2022-11-17T06:44:10.811Z,14.31
2022-11-17T06:45:10.931Z,14.27
2022-11-17T06:46:10.934Z,14.22
2022-11-17T06:47:11.390Z,14.18
2022-11-17T06:48:10.822Z,14.18
2022-11-17T06:49:10.845Z,14.22
2022-11-17T06:50:10.792Z,14.19
2022-11-17T06:51:10.874Z,14.20
2022-11-17T06:52:10.867Z,14.20
2022-11-17T06:53:10.892Z,14.20
2022-11-17T06:54:11.005Z,14.21
2022-11-17T06:55:11.284Z,14.18
2022-11-17T06:56:11.103Z,14.20
2022-11-17T06:57:11.461Z,14.18
2022-11-17T06:58:10.632Z,14.19
2022-11-17T06:59:10.941Z,14.18
2022-11-17T07:00:11.920Z,14.18
2022-11-17T07:01:10.775Z,14.19
2022-11-17T07:02:10.951Z,14.19
2022-11-17T07:03:11.460Z,14.19
2022-11-17T07:04:11.762Z,14.15
2022-11-17T07:05:10.581Z,14.21
2022-11-17T07:06:10.835Z,14.18
2022-11-17T07:07:10.867Z,14.11
2022-11-17T07:08:11.027Z,14.12
2022-11-17T07:09:11.214Z,14.12
2022-11-17T07:10:11.251Z,14.10
2022-11-17T07:11:11.151Z,14.12
2022-11-17T07:12:11.229Z,14.12
2022-11-17T07:13:11.492Z,14.10
2022-11-17T07:14:11.267Z,14.06
2022-11-17T07:15:11.760Z,14.07
2022-11-17T07:16:10.930Z,14.10
2022-11-17T07:17:11.651Z,14.12
2022-11-17T07:18:11.543Z,14.11
2022-11-17T07:19:11.550Z,14.10
2022-11-17T07:20:10.940Z,14.12
2022-11-17T07:21:11.077Z,14.17
2022-11-17T07:22:11.664Z,14.14
2022-11-17T07:23:10.837Z,14.19
2022-11-17T07:24:11.333Z,14.21
2022-11-17T07:25:11.583Z,14.18
2022-11-17T07:26:10.976Z,14.19
2022-11-17T07:27:11.161Z,14.22
2022-11-17T07:28:10.935Z,14.23
2022-11-17T07:29:11.436Z,14.28
2022-11-17T07:30:11.008Z,14.31
2022-11-17T07:31:11.238Z,14.36
2022-11-17T07:32:11.731Z,14.40
2022-11-17T07:33:10.911Z,14.38
2022-11-17T07:34:10.934Z,14.37
2022-11-17T07:35:11.035Z,14.38
2022-11-17T07:36:11.030Z,14.39
2022-11-17T07:37:11.341Z,14.43
2022-11-17T07:38:11.583Z,14.49
2022-11-17T07:39:10.478Z,14.50
2022-11-17T07:40:11.710Z,14.56
2022-11-17T07:41:10.745Z,14.55
2022-11-17T07:42:10.778Z,14.52
2022-11-17T07:43:11.129Z,14.55
2022-11-17T07:44:11.386Z,14.59
2022-11-17T07:45:11.859Z,14.60
2022-11-17T07:46:11.236Z,14.61
2022-11-17T07:47:11.498Z,14.63
2022-11-17T07:48:10.627Z,14.66
2022-11-17T07:49:10.783Z,14.63
2022-11-17T07:50:12.667Z,14.63
2022-11-17T07:51:11.533Z,14.68
2022-11-17T07:52:10.972Z,14.67
2022-11-17T07:53:10.876Z,14.70
2022-11-17T07:54:11.344Z,14.68
2022-11-17T07:55:11.062Z,14.68
2022-11-17T07:56:11.384Z,14.73
2022-11-17T07:57:10.910Z,14.74
2022-11-17T07:58:11.142Z,14.75
2022-11-17T07:59:11.258Z,14.75
2022-11-17T08:00:12.116Z,14.76
2022-11-17T08:01:11.685Z,14.78
2022-11-17T08:02:11.088Z,14.80
2022-11-17T08:03:11.486Z,14.80
2022-11-17T08:04:10.730Z,14.79
2022-11-17T08:05:11.191Z,14.75
2022-11-17T08:06:11.543Z,14.76
2022-11-17T08:07:11.676Z,14.76
2022-11-17T08:08:11.181Z,14.76
2022-11-17T08:09:11.289Z,14.78
2022-11-17T08:10:11.676Z,14.81
2022-11-17T08:11:10.892Z,14.82
2022-11-17T08:12:11.106Z,14.83
2022-11-17T08:13:11.307Z,14.88
2022-11-17T08:14:11.678Z,14.92
2022-11-17T08:15:11.149Z,14.94
2022-11-17T08:16:11.267Z,15.01
2022-11-17T08:17:11.541Z,15.04
2022-11-17T08:18:11.723Z,15.07
2022-11-17T08:19:10.653Z,15.10
2022-11-17T08:20:10.862Z,15.14
2022-11-17T08:21:11.181Z,15.11
2022-11-17T08:22:11.172Z,15.16
2022-11-17T08:23:11.465Z,15.15
2022-11-17T08:24:10.658Z,15.17
2022-11-17T08:25:10.912Z,15.14
2022-11-17T08:26:11.300Z,15.17
2022-11-17T08:27:11.297Z,15.18
2022-11-17T08:28:11.514Z,15.25
2022-11-17T08:29:11.090Z,15.26
2022-11-17T08:30:11.624Z,15.25
2022-11-17T08:31:10.862Z,15.27
2022-11-17T08:32:11.336Z,15.27
2022-11-17T08:33:16.525Z,15.28
2022-11-17T08:34:11.411Z,15.36
2022-11-17T08:35:11.628Z,15.40
2022-11-17T08:36:10.533Z,15.44
2022-11-17T08:37:16.253Z,15.50
2022-11-17T08:38:11.248Z,15.59
2022-11-17T08:39:16.301Z,15.66
2022-11-17T08:40:11.582Z,15.74
2022-11-17T08:41:10.970Z,15.81
2022-11-17T08:42:11.012Z,15.86
2022-11-17T08:43:11.889Z,15.94
2022-11-17T08:44:11.307Z,16
2022-11-17T08:45:11.541Z,16.04
2022-11-17T08:46:11.660Z,16.05
2022-11-17T08:47:11.037Z,16.10
2022-11-17T08:48:11.112Z,16.08
2022-11-17T08:49:11.152Z,16.07
2022-11-17T08:50:11.397Z,16.09
2022-11-17T08:51:10.566Z,16.14
2022-11-17T08:52:10.909Z,16.15
2022-11-17T08:53:25.004Z,16.16
2022-11-17T08:54:11.515Z,16.15
2022-11-17T08:55:25.483Z,16.12
2022-11-17T08:56:11.505Z,16.11
2022-11-17T08:57:11.798Z,16.13
2022-11-17T08:58:11.074Z,16.17
2022-11-17T08:59:11.032Z,16.19
2022-11-17T09:00:12.286Z,16.20
2022-11-17T09:01:11.426Z,16.22
2022-11-17T09:02:11.484Z,16.28
2022-11-17T09:03:11.462Z,16.32
2022-11-17T09:04:11.679Z,16.36
2022-11-17T09:05:10.965Z,16.34
2022-11-17T09:06:11.260Z,16.38
2022-11-17T09:07:11.417Z,16.42
2022-11-17T09:08:43.147Z,16.46
2022-11-17T09:09:11.627Z,16.50
2022-11-17T09:10:11.123Z,16.53
2022-11-17T09:11:11.319Z,16.51
2022-11-17T09:12:11.333Z,16.55
2022-11-17T09:13:14.768Z,16.60
2022-11-17T09:14:11.448Z,16.62
2022-11-17T09:15:11.370Z,16.70
2022-11-17T09:16:11.323Z,16.76
2022-11-17T09:17:11.066Z,16.85
2022-11-17T09:18:11.150Z,16.88
2022-11-17T09:19:11.325Z,16.95
2022-11-17T09:20:11.543Z,17.04
2022-11-17T09:21:11.640Z,17.15
2022-11-17T09:22:11.971Z,17.19
2022-11-17T09:23:11.039Z,17.22
2022-11-17T09:24:11.216Z,17.29
2022-11-17T09:25:13.480Z,17.31
2022-11-17T09:26:11.775Z,17.33
2022-11-17T09:27:11.249Z,17.31
2022-11-17T09:28:11.392Z,17.33
2022-11-17T09:29:11.276Z,17.31
2022-11-17T09:30:11.707Z,17.28
2022-11-17T09:31:11.148Z,17.23
2022-11-17T09:32:11.475Z,17.22
2022-11-17T09:33:11.472Z,17.17
2022-11-17T09:34:11.386Z,17.14
2022-11-17T09:35:11.034Z,17.12
2022-11-17T09:36:11.566Z,17.13
2022-11-17T09:37:11.045Z,17.17
2022-11-17T09:38:11.423Z,17.21
2022-11-17T09:39:11.742Z,17.21
2022-11-17T09:40:11.369Z,17.22
2022-11-17T09:41:11.410Z,17.22
2022-11-17T09:42:11.505Z,17.20
2022-11-17T09:43:10.905Z,17.21
2022-11-17T09:44:11.043Z,17.15
2022-11-17T09:45:11.086Z,17.10
2022-11-17T09:46:11.414Z,17.10
2022-11-17T09:47:11.473Z,17.12
2022-11-17T09:48:25.870Z,17.11
2022-11-17T09:49:11.544Z,17.04
2022-11-17T09:50:11.772Z,17.03
2022-11-17T09:51:10.775Z,17.04
2022-11-17T09:52:11.035Z,17.05
2022-11-17T09:53:11.034Z,17.05
2022-11-17T09:54:11.231Z,17.05
2022-11-17T09:55:11.471Z,17.10
2022-11-17T09:56:10.660Z,17.15
2022-11-17T09:57:11.617Z,17.17
2022-11-17T09:58:11.512Z,17.11
2022-11-17T09:59:11.494Z,17.12
2022-11-17T10:00:12.279Z,17.11
2022-11-17T10:01:10.907Z,17.17
2022-11-17T10:02:11.263Z,17.15
2022-11-17T10:03:11.729Z,17.14
2022-11-17T10:04:11.252Z,17.18
2022-11-17T10:05:11.373Z,17.20
2022-11-17T10:06:11.508Z,17.20
2022-11-17T10:07:11.755Z,17.19
2022-11-17T10:08:11.048Z,17.19
2022-11-17T10:09:11.139Z,17.21
2022-11-17T10:10:11.032Z,17.18
2022-11-17T10:11:11.310Z,17.20
2022-11-17T10:12:11.604Z,17.21
2022-11-17T10:13:10.669Z,17.20
2022-11-17T10:14:10.897Z,17.21
2022-11-17T10:15:11.276Z,17.19
2022-11-17T10:16:11.364Z,17.20
2022-11-17T10:17:11.250Z,17.19
2022-11-17T10:18:11.457Z,17.25
2022-11-17T10:19:11.571Z,17.30
2022-11-17T10:20:11.924Z,17.33
2022-11-17T10:21:11.405Z,17.34
2022-11-17T10:22:11.412Z,17.31
2022-11-17T10:23:11.840Z,17.32
2022-11-17T10:24:11.267Z,17.37
2022-11-17T10:25:11.518Z,17.40
2022-11-17T10:26:10.842Z,17.44
2022-11-17T10:27:11.297Z,17.46
2022-11-17T10:28:11.438Z,17.47
2022-11-17T10:29:11.475Z,17.48
2022-11-17T10:30:11.523Z,17.43
2022-11-17T10:31:11.194Z,17.48
2022-11-17T10:32:12.027Z,17.49
2022-11-17T10:33:11.903Z,17.50
2022-11-17T10:34:11.355Z,17.48
2022-11-17T10:35:11.727Z,17.45
2022-11-17T10:36:11.091Z,17.42
2022-11-17T10:37:11.478Z,17.43
2022-11-17T10:38:10.979Z,17.47
2022-11-17T10:39:17.508Z,17.46
2022-11-17T10:40:11.107Z,17.46
2022-11-17T10:41:11.779Z,17.47
2022-11-17T10:42:10.997Z,17.51
2022-11-17T10:43:11.018Z,17.54
2022-11-17T10:44:11.361Z,17.54
2022-11-17T10:45:11.505Z,17.57
2022-11-17T10:46:11.711Z,17.60
2022-11-17T10:47:10.947Z,17.62
2022-11-17T10:48:11.081Z,17.64
2022-11-17T10:50:11.238Z,17.70
2022-11-17T10:51:11.394Z,17.69
2022-11-17T10:52:11.379Z,17.70
2022-11-17T10:53:12.875Z,17.69
2022-11-17T10:54:11.096Z,17.62
2022-11-17T10:55:11.170Z,17.63
2022-11-17T10:56:11.482Z,17.67
2022-11-17T10:57:10.887Z,17.67
2022-11-17T10:58:11.633Z,17.61
2022-11-17T10:59:10.949Z,17.60
2022-11-17T11:00:11.613Z,17.58
2022-11-17T11:01:11.129Z,17.57
2022-11-17T11:02:11.372Z,17.56
2022-11-17T11:03:11.037Z,17.58
2022-11-17T11:04:11.025Z,17.66
2022-11-17T11:05:11.581Z,17.62
2022-11-17T11:06:17.213Z,17.56
2022-11-17T11:07:11.584Z,17.60
2022-11-17T11:08:11.091Z,17.62
2022-11-17T11:09:11.518Z,17.63
2022-11-17T11:10:11.508Z,17.64
2022-11-17T11:11:11.624Z,17.64
2022-11-17T11:12:11.068Z,17.66
2022-11-17T11:13:11.302Z,17.63
2022-11-17T11:14:11.777Z,17.56
2022-11-17T11:15:10.913Z,17.59
2022-11-17T11:16:25.330Z,17.60
2022-11-17T11:17:11.249Z,17.57
2022-11-17T11:18:11.635Z,17.56
2022-11-17T11:19:10.985Z,17.59
2022-11-17T11:20:11.520Z,17.61
2022-11-17T11:21:10.900Z,17.59
2022-11-17T11:22:11.237Z,17.57
2022-11-17T11:23:11.317Z,17.54
2022-11-17T11:24:25.473Z,17.56
2022-11-17T11:25:11.625Z,17.56
2022-11-17T11:26:10.830Z,17.55
2022-11-17T11:27:10.933Z,17.54
2022-11-17T11:28:11.385Z,17.47
2022-11-17T11:29:11.537Z,17.45
2022-11-17T11:30:11.563Z,17.39
2022-11-17T11:31:11.141Z,17.40
2022-11-17T11:32:11.537Z,17.33
2022-11-17T11:33:10.900Z,17.29
2022-11-17T11:34:11.580Z,17.28
2022-11-17T11:35:17.040Z,17.30
2022-11-17T11:36:11.075Z,17.31
2022-11-17T11:37:11.065Z,17.35
2022-11-17T11:38:10.924Z,17.35
2022-11-17T11:39:11.486Z,17.33
2022-11-17T11:40:11.080Z,17.35
2022-11-17T11:41:11.514Z,17.39
2022-11-17T11:42:11.723Z,17.37
2022-11-17T11:43:10.888Z,17.38
2022-11-17T11:44:10.885Z,17.45
2022-11-17T11:45:10.945Z,17.5
2022-11-17T11:46:11.048Z,17.51
2022-11-17T11:47:10.992Z,17.50
2022-11-17T11:49:11.687Z,17.60
2022-11-17T11:50:11.304Z,17.64
2022-11-17T11:51:11.487Z,17.68
2022-11-17T11:52:11.416Z,17.71
2022-11-17T11:53:11.164Z,17.73
2022-11-17T11:54:11.641Z,17.75
2022-11-17T11:55:11.159Z,17.74
2022-11-17T11:56:10.489Z,17.75
2022-11-17T11:57:11.032Z,17.79
2022-11-17T11:58:11.004Z,17.78
2022-11-17T11:59:11.259Z,17.81
2022-11-17T12:00:12.093Z,17.79
2022-11-17T12:01:11.383Z,17.78
2022-11-17T12:02:12.099Z,17.79
2022-11-17T12:03:11.647Z,17.85
2022-11-17T12:04:11.215Z,17.86
2022-11-17T12:05:10.535Z,17.90
2022-11-17T12:07:11.652Z,17.98
2022-11-17T12:08:11.195Z,18.01
2022-11-17T12:09:11.356Z,18
2022-11-17T12:11:10.965Z,18.01
2022-11-17T12:12:11.147Z,17.97
2022-11-17T12:13:11.561Z,17.97
2022-11-17T12:15:11.787Z,18.05
2022-11-17T12:16:11.344Z,18.04
2022-11-17T12:17:11.593Z,18.06
2022-11-17T12:18:11.001Z,18.09
2022-11-17T12:19:11.541Z,18.06
2022-11-17T12:20:11.296Z,18.05
2022-11-17T12:21:10.823Z,18.09
2022-11-17T12:22:11.256Z,18.09
2022-11-17T12:23:11.146Z,18.02
2022-11-17T12:24:11.605Z,18.04
2022-11-17T12:25:11.401Z,18.07
2022-11-17T12:26:10.681Z,18.03
2022-11-17T12:27:11.249Z,18.01
2022-11-17T12:28:11.876Z,17.99
2022-11-17T12:29:11.533Z,18.00
2022-11-17T12:30:11.418Z,18.00
2022-11-17T12:31:11.303Z,17.98
2022-11-17T12:32:11.515Z,18.00
2022-11-17T12:33:11.159Z,18.04
2022-11-17T12:34:11.542Z,18.03
2022-11-17T12:35:11.215Z,18.05
2022-11-17T12:36:11.598Z,18.05
2022-11-17T12:37:10.819Z,18.05
2022-11-17T12:38:11.025Z,18.05
2022-11-17T12:39:11.231Z,18.08
2022-11-17T12:40:11.782Z,18.10
2022-11-17T12:41:11.085Z,18.10
2022-11-17T12:42:11.667Z,18.09
2022-11-17T12:43:11.099Z,18.12
2022-11-17T12:44:11.708Z,18.11
2022-11-17T12:45:10.911Z,18.09
2022-11-17T12:46:11.371Z,18.04
2022-11-17T12:47:11.572Z,18.02
2022-11-17T12:48:32.777Z,17.98
2022-11-17T12:49:11.127Z,18.00
2022-11-17T12:50:11.633Z,18.03
2022-11-17T12:51:11.025Z,18.04
2022-11-17T12:52:11.323Z,18.06
2022-11-17T12:53:11.617Z,18.12
2022-11-17T12:54:11.701Z,18.15
2022-11-17T12:55:10.937Z,18.20
2022-11-17T12:56:11.427Z,18.25
2022-11-17T12:57:11.938Z,18.27
2022-11-17T12:58:11.939Z,18.30